sensor_id;sensor_type;location;lat;lon;timestamp;P1;durP1;ratioP1;P2;durP2;ratioP2
48241;SDS011;34041;51.812;4.622;2023-04-08T00:02:41;13.53;;;6.67;;
48241;SDS011;34041;51.812;4.622;2023-04-08T00:05:42;12.80;;;7.38;;
48241;SDS011;34041;51.812;4.622;2023-04-08T00:08:42;10.10;;;5.50;;
48241;SDS011;34041;51.812;4.622;2023-04-08T00:11:42;11.18;;;5.95;;
48241;SDS011;34041;51.812;4.622;2023-04-08T00:14:42;11.17;;;6.60;;
48241;SDS011;34041;51.812;4.622;2023-04-08T00:17:43;11.38;;;6.82;;
48241;SDS011;34041;51.812;4.622;2023-04-08T00:20:44;12.85;;;5.80;;
48241;SDS011;34041;51.812;4.622;2023-04-08T00:23:44;10.35;;;6.55;;
48241;SDS011;34041;51.812;4.622;2023-04-08T00:26:45;10.20;;;5.97;;
48241;SDS011;34041;51.812;4.622;2023-04-08T00:29:45;9.77;;;6.00;;
48241;SDS011;34041;51.812;4.622;2023-04-08T00:32:45;10.37;;;6.70;;
48241;SDS011;34041;51.812;4.622;2023-04-08T00:35:45;10.97;;;6.03;;
48241;SDS011;34041;51.812;4.622;2023-04-08T00:38:46;9.77;;;6.10;;
48241;SDS011;34041;51.812;4.622;2023-04-08T00:41:46;11.35;;;5.65;;
48241;SDS011;34041;51.812;4.622;2023-04-08T00:44:46;9.97;;;6.23;;
48241;SDS011;34041;51.812;4.622;2023-04-08T00:47:46;11.38;;;6.38;;
48241;SDS011;34041;51.812;4.622;2023-04-08T00:50:51;13.45;;;6.57;;
48241;SDS011;34041;51.812;4.622;2023-04-08T00:53:51;11.93;;;5.97;;
48241;SDS011;34041;51.812;4.622;2023-04-08T00:56:51;12.93;;;6.17;;
48241;SDS011;34041;51.812;4.622;2023-04-08T00:59:52;10.80;;;6.43;;
48241;SDS011;34041;51.812;4.622;2023-04-08T01:03:07;9.60;;;6.65;;
48241;SDS011;34041;51.812;4.622;2023-04-08T01:09:10;9.32;;;6.65;;
48241;SDS011;34041;51.812;4.622;2023-04-08T01:12:11;13.25;;;7.55;;
48241;SDS011;34041;51.812;4.622;2023-04-08T01:15:13;11.88;;;7.25;;
48241;SDS011;34041;51.812;4.622;2023-04-08T01:18:13;8.05;;;5.93;;
48241;SDS011;34041;51.812;4.622;2023-04-08T01:21:14;10.45;;;6.00;;
48241;SDS011;34041;51.812;4.622;2023-04-08T01:24:28;9.82;;;7.35;;
48241;SDS011;34041;51.812;4.622;2023-04-08T01:27:30;12.13;;;7.35;;
48241;SDS011;34041;51.812;4.622;2023-04-08T01:30:30;9.55;;;6.90;;
48241;SDS011;34041;51.812;4.622;2023-04-08T01:33:31;11.75;;;7.00;;
48241;SDS011;34041;51.812;4.622;2023-04-08T01:36:31;13.85;;;7.53;;
48241;SDS011;34041;51.812;4.622;2023-04-08T01:39:34;9.60;;;6.63;;
48241;SDS011;34041;51.812;4.622;2023-04-08T01:42:35;10.02;;;7.00;;
48241;SDS011;34041;51.812;4.622;2023-04-08T01:45:35;12.95;;;7.43;;
48241;SDS011;34041;51.812;4.622;2023-04-08T01:48:35;14.00;;;8.43;;
48241;SDS011;34041;51.812;4.622;2023-04-08T01:51:37;11.77;;;7.43;;
48241;SDS011;34041;51.812;4.622;2023-04-08T01:54:37;12.15;;;7.50;;
48241;SDS011;34041;51.812;4.622;2023-04-08T01:57:38;12.63;;;8.13;;
48241;SDS011;34041;51.812;4.622;2023-04-08T02:00:39;11.85;;;7.88;;
48241;SDS011;34041;51.812;4.622;2023-04-08T02:03:42;14.80;;;8.73;;
48241;SDS011;34041;51.812;4.622;2023-04-08T02:06:43;15.93;;;9.98;;
48241;SDS011;34041;51.812;4.622;2023-04-08T02:09:43;12.82;;;8.00;;
48241;SDS011;34041;51.812;4.622;2023-04-08T02:12:44;14.60;;;8.75;;
48241;SDS011;34041;51.812;4.622;2023-04-08T02:15:46;14.48;;;9.45;;
48241;SDS011;34041;51.812;4.622;2023-04-08T02:18:54;11.18;;;8.43;;
48241;SDS011;34041;51.812;4.622;2023-04-08T02:22:01;15.63;;;8.50;;
48241;SDS011;34041;51.812;4.622;2023-04-08T02:25:06;13.00;;;9.48;;
48241;SDS011;34041;51.812;4.622;2023-04-08T02:28:08;15.23;;;8.85;;
48241;SDS011;34041;51.812;4.622;2023-04-08T02:31:10;14.63;;;10.13;;
48241;SDS011;34041;51.812;4.622;2023-04-08T02:34:13;14.18;;;10.38;;
48241;SDS011;34041;51.812;4.622;2023-04-08T02:37:15;13.85;;;10.20;;
48241;SDS011;34041;51.812;4.622;2023-04-08T02:40:22;12.48;;;10.68;;
48241;SDS011;34041;51.812;4.622;2023-04-08T02:43:23;15.90;;;11.05;;
48241;SDS011;34041;51.812;4.622;2023-04-08T02:46:31;15.60;;;11.55;;
48241;SDS011;34041;51.812;4.622;2023-04-08T02:49:31;14.88;;;11.13;;
48241;SDS011;34041;51.812;4.622;2023-04-08T02:52:31;15.90;;;10.87;;
48241;SDS011;34041;51.812;4.622;2023-04-08T02:55:31;15.70;;;11.17;;
48241;SDS011;34041;51.812;4.622;2023-04-08T02:58:32;14.27;;;10.70;;
48241;SDS011;34041;51.812;4.622;2023-04-08T03:01:32;15.10;;;11.75;;
48241;SDS011;34041;51.812;4.622;2023-04-08T03:04:32;15.83;;;11.50;;
48241;SDS011;34041;51.812;4.622;2023-04-08T03:07:33;16.20;;;12.07;;
48241;SDS011;34041;51.812;4.622;2023-04-08T03:10:33;18.30;;;13.50;;
48241;SDS011;34041;51.812;4.622;2023-04-08T03:13:33;15.07;;;11.93;;
48241;SDS011;34041;51.812;4.622;2023-04-08T03:16:34;15.15;;;12.40;;
48241;SDS011;34041;51.812;4.622;2023-04-08T03:19:34;16.70;;;13.00;;
48241;SDS011;34041;51.812;4.622;2023-04-08T03:22:35;16.75;;;12.25;;
48241;SDS011;34041;51.812;4.622;2023-04-08T03:25:35;18.73;;;13.57;;
48241;SDS011;34041;51.812;4.622;2023-04-08T03:28:35;15.90;;;12.57;;
48241;SDS011;34041;51.812;4.622;2023-04-08T03:31:36;17.08;;;13.57;;
48241;SDS011;34041;51.812;4.622;2023-04-08T03:34:36;18.05;;;13.98;;
48241;SDS011;34041;51.812;4.622;2023-04-08T03:37:36;18.27;;;14.63;;
48241;SDS011;34041;51.812;4.622;2023-04-08T03:40:36;18.07;;;14.63;;
48241;SDS011;34041;51.812;4.622;2023-04-08T03:43:37;16.03;;;12.60;;
48241;SDS011;34041;51.812;4.622;2023-04-08T03:46:37;20.23;;;14.13;;
48241;SDS011;34041;51.812;4.622;2023-04-08T03:49:37;19.17;;;14.80;;
48241;SDS011;34041;51.812;4.622;2023-04-08T03:52:37;21.00;;;14.40;;
48241;SDS011;34041;51.812;4.622;2023-04-08T03:55:37;20.27;;;15.00;;
48241;SDS011;34041;51.812;4.622;2023-04-08T03:58:38;18.17;;;14.80;;
48241;SDS011;34041;51.812;4.622;2023-04-08T04:01:38;19.10;;;15.07;;
48241;SDS011;34041;51.812;4.622;2023-04-08T04:04:38;21.00;;;16.00;;
48241;SDS011;34041;51.812;4.622;2023-04-08T04:07:38;18.03;;;15.03;;
48241;SDS011;34041;51.812;4.622;2023-04-08T04:10:39;21.07;;;15.87;;
48241;SDS011;34041;51.812;4.622;2023-04-08T04:13:39;22.27;;;15.83;;
48241;SDS011;34041;51.812;4.622;2023-04-08T04:16:39;22.77;;;15.93;;
48241;SDS011;34041;51.812;4.622;2023-04-08T04:19:39;20.63;;;16.40;;
48241;SDS011;34041;51.812;4.622;2023-04-08T04:22:40;22.67;;;16.40;;
48241;SDS011;34041;51.812;4.622;2023-04-08T04:25:40;20.40;;;15.88;;
48241;SDS011;34041;51.812;4.622;2023-04-08T04:28:41;18.17;;;15.52;;
48241;SDS011;34041;51.812;4.622;2023-04-08T04:31:41;21.60;;;15.87;;
48241;SDS011;34041;51.812;4.622;2023-04-08T04:34:41;20.53;;;15.87;;
48241;SDS011;34041;51.812;4.622;2023-04-08T04:37:43;21.27;;;15.65;;
48241;SDS011;34041;51.812;4.622;2023-04-08T04:40:43;20.43;;;16.53;;
48241;SDS011;34041;51.812;4.622;2023-04-08T04:43:43;20.73;;;16.13;;
48241;SDS011;34041;51.812;4.622;2023-04-08T04:46:44;20.10;;;16.40;;
48241;SDS011;34041;51.812;4.622;2023-04-08T04:49:44;19.65;;;15.77;;
48241;SDS011;34041;51.812;4.622;2023-04-08T04:52:44;19.35;;;15.85;;
48241;SDS011;34041;51.812;4.622;2023-04-08T04:55:45;20.65;;;15.10;;
48241;SDS011;34041;51.812;4.622;2023-04-08T04:58:45;22.30;;;16.60;;
48241;SDS011;34041;51.812;4.622;2023-04-08T05:01:45;20.70;;;16.77;;
48241;SDS011;34041;51.812;4.622;2023-04-08T05:04:46;22.60;;;16.90;;
48241;SDS011;34041;51.812;4.622;2023-04-08T05:07:46;20.10;;;15.37;;
48241;SDS011;34041;51.812;4.622;2023-04-08T05:10:46;21.33;;;16.13;;
48241;SDS011;34041;51.812;4.622;2023-04-08T05:13:49;21.25;;;15.52;;
48241;SDS011;34041;51.812;4.622;2023-04-08T05:16:49;19.27;;;16.77;;
48241;SDS011;34041;51.812;4.622;2023-04-08T05:19:49;21.60;;;16.08;;
48241;SDS011;34041;51.812;4.622;2023-04-08T05:22:50;18.13;;;15.20;;
48241;SDS011;34041;51.812;4.622;2023-04-08T05:25:51;19.60;;;15.50;;
48241;SDS011;34041;51.812;4.622;2023-04-08T05:28:51;21.63;;;16.42;;
48241;SDS011;34041;51.812;4.622;2023-04-08T05:31:51;20.70;;;15.47;;
48241;SDS011;34041;51.812;4.622;2023-04-08T05:34:51;17.27;;;14.95;;
48241;SDS011;34041;51.812;4.622;2023-04-08T05:37:52;21.33;;;16.50;;
48241;SDS011;34041;51.812;4.622;2023-04-08T05:40:52;20.07;;;16.03;;
48241;SDS011;34041;51.812;4.622;2023-04-08T05:43:52;18.83;;;15.70;;
48241;SDS011;34041;51.812;4.622;2023-04-08T05:46:52;18.63;;;15.15;;
48241;SDS011;34041;51.812;4.622;2023-04-08T05:49:54;21.65;;;16.25;;
48241;SDS011;34041;51.812;4.622;2023-04-08T05:52:54;20.63;;;15.63;;
48241;SDS011;34041;51.812;4.622;2023-04-08T05:55:54;21.70;;;16.60;;
48241;SDS011;34041;51.812;4.622;2023-04-08T05:58:54;21.73;;;16.95;;
48241;SDS011;34041;51.812;4.622;2023-04-08T06:01:55;22.00;;;15.23;;
48241;SDS011;34041;51.812;4.622;2023-04-08T06:04:55;21.35;;;15.60;;
48241;SDS011;34041;51.812;4.622;2023-04-08T06:07:56;21.50;;;16.42;;
48241;SDS011;34041;51.812;4.622;2023-04-08T06:10:56;18.80;;;15.90;;
48241;SDS011;34041;51.812;4.622;2023-04-08T06:13:56;21.27;;;15.53;;
48241;SDS011;34041;51.812;4.622;2023-04-08T06:16:56;18.60;;;15.53;;
48241;SDS011;34041;51.812;4.622;2023-04-08T06:19:57;18.45;;;15.43;;
48241;SDS011;34041;51.812;4.622;2023-04-08T06:22:57;18.93;;;15.53;;
48241;SDS011;34041;51.812;4.622;2023-04-08T06:25:57;17.20;;;15.40;;
48241;SDS011;34041;51.812;4.622;2023-04-08T06:28:57;20.27;;;15.77;;
48241;SDS011;34041;51.812;4.622;2023-04-08T06:31:58;18.40;;;14.57;;
48241;SDS011;34041;51.812;4.622;2023-04-08T06:34:58;18.70;;;14.77;;
48241;SDS011;34041;51.812;4.622;2023-04-08T06:37:58;18.02;;;15.90;;
48241;SDS011;34041;51.812;4.622;2023-04-08T06:41:04;16.20;;;14.27;;
48241;SDS011;34041;51.812;4.622;2023-04-08T06:44:05;18.73;;;14.75;;
48241;SDS011;34041;51.812;4.622;2023-04-08T06:47:05;16.50;;;14.27;;
48241;SDS011;34041;51.812;4.622;2023-04-08T06:50:05;18.47;;;13.47;;
48241;SDS011;34041;51.812;4.622;2023-04-08T06:53:06;15.95;;;12.75;;
48241;SDS011;34041;51.812;4.622;2023-04-08T06:56:06;15.43;;;12.77;;
48241;SDS011;34041;51.812;4.622;2023-04-08T06:59:06;16.42;;;13.60;;
48241;SDS011;34041;51.812;4.622;2023-04-08T07:02:07;16.43;;;13.93;;
48241;SDS011;34041;51.812;4.622;2023-04-08T07:05:07;17.80;;;13.60;;
48241;SDS011;34041;51.812;4.622;2023-04-08T07:08:07;15.85;;;12.40;;
48241;SDS011;34041;51.812;4.622;2023-04-08T07:11:07;14.10;;;12.00;;
48241;SDS011;34041;51.812;4.622;2023-04-08T07:14:08;13.27;;;11.20;;
48241;SDS011;34041;51.812;4.622;2023-04-08T07:17:08;16.23;;;12.57;;
48241;SDS011;34041;51.812;4.622;2023-04-08T07:20:08;14.70;;;11.70;;
48241;SDS011;34041;51.812;4.622;2023-04-08T07:23:08;13.27;;;11.88;;
48241;SDS011;34041;51.812;4.622;2023-04-08T07:26:09;13.95;;;12.45;;
48241;SDS011;34041;51.812;4.622;2023-04-08T07:29:09;14.37;;;11.20;;
48241;SDS011;34041;51.812;4.622;2023-04-08T07:32:09;13.40;;;11.80;;
48241;SDS011;34041;51.812;4.622;2023-04-08T07:35:10;12.15;;;10.52;;
48241;SDS011;34041;51.812;4.622;2023-04-08T07:38:10;19.70;;;11.20;;
48241;SDS011;34041;51.812;4.622;2023-04-08T07:41:12;11.32;;;10.15;;
48241;SDS011;34041;51.812;4.622;2023-04-08T07:44:12;10.55;;;9.45;;
48241;SDS011;34041;51.812;4.622;2023-04-08T07:47:16;11.70;;;10.43;;
48241;SDS011;34041;51.812;4.622;2023-04-08T07:50:16;13.10;;;10.93;;
48241;SDS011;34041;51.812;4.622;2023-04-08T07:53:17;13.60;;;10.32;;
48241;SDS011;34041;51.812;4.622;2023-04-08T07:56:17;12.07;;;10.52;;
48241;SDS011;34041;51.812;4.622;2023-04-08T07:59:18;10.83;;;9.33;;
48241;SDS011;34041;51.812;4.622;2023-04-08T08:02:18;10.88;;;9.55;;
48241;SDS011;34041;51.812;4.622;2023-04-08T08:05:18;11.40;;;10.20;;
48241;SDS011;34041;51.812;4.622;2023-04-08T08:08:18;12.82;;;9.77;;
48241;SDS011;34041;51.812;4.622;2023-04-08T08:11:19;13.05;;;10.52;;
48241;SDS011;34041;51.812;4.622;2023-04-08T08:14:20;11.18;;;10.07;;
48241;SDS011;34041;51.812;4.622;2023-04-08T08:17:20;11.23;;;9.88;;
48241;SDS011;34041;51.812;4.622;2023-04-08T08:20:21;10.43;;;9.30;;
48241;SDS011;34041;51.812;4.622;2023-04-08T08:23:21;12.00;;;10.17;;
48241;SDS011;34041;51.812;4.622;2023-04-08T08:26:21;11.63;;;9.97;;
48241;SDS011;34041;51.812;4.622;2023-04-08T08:29:22;12.05;;;10.25;;
48241;SDS011;34041;51.812;4.622;2023-04-08T08:32:22;12.10;;;10.23;;
48241;SDS011;34041;51.812;4.622;2023-04-08T08:35:22;12.63;;;10.20;;
48241;SDS011;34041;51.812;4.622;2023-04-08T08:38:23;12.37;;;11.07;;
48241;SDS011;34041;51.812;4.622;2023-04-08T08:41:23;11.13;;;10.00;;
48241;SDS011;34041;51.812;4.622;2023-04-08T08:44:23;11.03;;;9.03;;
48241;SDS011;34041;51.812;4.622;2023-04-08T08:47:23;9.93;;;8.70;;
48241;SDS011;34041;51.812;4.622;2023-04-08T08:50:24;10.77;;;9.65;;
48241;SDS011;34041;51.812;4.622;2023-04-08T08:53:28;13.57;;;11.05;;
48241;SDS011;34041;51.812;4.622;2023-04-08T08:56:28;11.57;;;10.32;;
48241;SDS011;34041;51.812;4.622;2023-04-08T08:59:28;11.63;;;10.38;;
48241;SDS011;34041;51.812;4.622;2023-04-08T09:02:29;11.73;;;10.60;;
48241;SDS011;34041;51.812;4.622;2023-04-08T09:05:31;13.57;;;10.48;;
48241;SDS011;34041;51.812;4.622;2023-04-08T09:08:45;12.57;;;10.77;;
48241;SDS011;34041;51.812;4.622;2023-04-08T09:11:47;12.57;;;11.00;;
48241;SDS011;34041;51.812;4.622;2023-04-08T09:14:48;13.37;;;11.27;;
48241;SDS011;34041;51.812;4.622;2023-04-08T09:17:48;13.10;;;11.73;;
48241;SDS011;34041;51.812;4.622;2023-04-08T09:20:51;12.47;;;11.23;;
48241;SDS011;34041;51.812;4.622;2023-04-08T09:23:52;12.97;;;11.57;;
48241;SDS011;34041;51.812;4.622;2023-04-08T09:26:52;14.25;;;12.75;;
48241;SDS011;34041;51.812;4.622;2023-04-08T09:29:54;15.70;;;13.10;;
48241;SDS011;34041;51.812;4.622;2023-04-08T09:33:11;14.88;;;12.93;;
48241;SDS011;34041;51.812;4.622;2023-04-08T09:36:11;13.63;;;12.23;;
48241;SDS011;34041;51.812;4.622;2023-04-08T09:39:12;12.95;;;11.48;;
48241;SDS011;34041;51.812;4.622;2023-04-08T09:42:12;13.80;;;12.30;;
48241;SDS011;34041;51.812;4.622;2023-04-08T09:45:13;14.52;;;12.35;;
48241;SDS011;34041;51.812;4.622;2023-04-08T09:48:18;14.23;;;12.55;;
48241;SDS011;34041;51.812;4.622;2023-04-08T09:51:23;14.10;;;12.60;;
48241;SDS011;34041;51.812;4.622;2023-04-08T09:54:24;14.55;;;13.05;;
48241;SDS011;34041;51.812;4.622;2023-04-08T09:57:43;14.85;;;13.25;;
48241;SDS011;34041;51.812;4.622;2023-04-08T10:00:46;16.83;;;13.93;;
48241;SDS011;34041;51.812;4.622;2023-04-08T10:03:51;14.63;;;13.13;;
48241;SDS011;34041;51.812;4.622;2023-04-08T10:06:53;16.90;;;13.73;;
48241;SDS011;34041;51.812;4.622;2023-04-08T10:09:56;17.20;;;14.45;;
48241;SDS011;34041;51.812;4.622;2023-04-08T10:12:56;17.73;;;15.82;;
48241;SDS011;34041;51.812;4.622;2023-04-08T10:28:32;19.73;;;14.98;;
48241;SDS011;34041;51.812;4.622;2023-04-08T10:31:38;15.97;;;13.87;;
48241;SDS011;34041;51.812;4.622;2023-04-08T10:34:49;18.40;;;14.15;;
48241;SDS011;34041;51.812;4.622;2023-04-08T10:37:50;17.73;;;14.68;;
48241;SDS011;34041;51.812;4.622;2023-04-08T10:40:50;21.02;;;15.25;;
48241;SDS011;34041;51.812;4.622;2023-04-08T10:43:51;19.65;;;15.63;;
48241;SDS011;34041;51.812;4.622;2023-04-08T10:46:52;17.53;;;15.67;;
48241;SDS011;34041;51.812;4.622;2023-04-08T10:49:52;17.15;;;15.20;;
48241;SDS011;34041;51.812;4.622;2023-04-08T10:52:52;16.33;;;14.63;;
48241;SDS011;34041;51.812;4.622;2023-04-08T10:55:53;19.25;;;15.50;;
48241;SDS011;34041;51.812;4.622;2023-04-08T10:58:54;17.23;;;15.10;;
48241;SDS011;34041;51.812;4.622;2023-04-08T11:01:58;18.53;;;16.47;;
48241;SDS011;34041;51.812;4.622;2023-04-08T11:04:59;18.52;;;16.63;;
48241;SDS011;34041;51.812;4.622;2023-04-08T11:07:59;17.20;;;15.33;;
48241;SDS011;34041;51.812;4.622;2023-04-08T11:11:00;19.70;;;17.70;;
48241;SDS011;34041;51.812;4.622;2023-04-08T11:14:01;18.40;;;16.52;;
48241;SDS011;34041;51.812;4.622;2023-04-08T11:17:01;17.77;;;15.87;;
48241;SDS011;34041;51.812;4.622;2023-04-08T11:20:05;17.67;;;15.85;;
48241;SDS011;34041;51.812;4.622;2023-04-08T11:23:11;15.82;;;14.20;;
48241;SDS011;34041;51.812;4.622;2023-04-08T11:26:12;20.50;;;15.77;;
48241;SDS011;34041;51.812;4.622;2023-04-08T11:29:12;15.93;;;14.23;;
48241;SDS011;34041;51.812;4.622;2023-04-08T11:32:13;18.98;;;16.98;;
48241;SDS011;34041;51.812;4.622;2023-04-08T11:35:15;17.50;;;14.40;;
48241;SDS011;34041;51.812;4.622;2023-04-08T11:38:15;17.88;;;14.70;;
48241;SDS011;34041;51.812;4.622;2023-04-08T11:41:16;15.80;;;14.23;;
48241;SDS011;34041;51.812;4.622;2023-04-08T11:44:16;16.58;;;14.85;;
48241;SDS011;34041;51.812;4.622;2023-04-08T11:47:16;16.17;;;14.35;;
48241;SDS011;34041;51.812;4.622;2023-04-08T11:50:26;19.38;;;15.45;;
48241;SDS011;34041;51.812;4.622;2023-04-08T11:53:28;15.50;;;13.85;;
48241;SDS011;34041;51.812;4.622;2023-04-08T11:56:29;18.00;;;15.70;;
48241;SDS011;34041;51.812;4.622;2023-04-08T11:59:29;17.52;;;13.90;;
48241;SDS011;34041;51.812;4.622;2023-04-08T12:02:30;15.82;;;14.18;;
48241;SDS011;34041;51.812;4.622;2023-04-08T12:05:30;16.63;;;14.03;;
48241;SDS011;34041;51.812;4.622;2023-04-08T12:08:30;15.35;;;13.75;;
48241;SDS011;34041;51.812;4.622;2023-04-08T12:11:30;15.03;;;13.50;;
48241;SDS011;34041;51.812;4.622;2023-04-08T12:14:31;14.70;;;13.17;;
48241;SDS011;34041;51.812;4.622;2023-04-08T12:17:31;14.60;;;13.20;;
48241;SDS011;34041;51.812;4.622;2023-04-08T12:20:31;13.80;;;12.47;;
48241;SDS011;34041;51.812;4.622;2023-04-08T12:23:31;14.53;;;12.97;;
48241;SDS011;34041;51.812;4.622;2023-04-08T12:26:32;15.45;;;13.80;;
48241;SDS011;34041;51.812;4.622;2023-04-08T12:29:32;14.17;;;12.67;;
48241;SDS011;34041;51.812;4.622;2023-04-08T12:32:32;14.67;;;13.17;;
48241;SDS011;34041;51.812;4.622;2023-04-08T12:35:33;14.50;;;13.10;;
48241;SDS011;34041;51.812;4.622;2023-04-08T12:38:33;15.00;;;13.52;;
48241;SDS011;34041;51.812;4.622;2023-04-08T12:41:34;14.85;;;13.25;;
48241;SDS011;34041;51.812;4.622;2023-04-08T12:44:34;15.88;;;12.35;;
48241;SDS011;34041;51.812;4.622;2023-04-08T12:47:34;14.25;;;12.80;;
48241;SDS011;34041;51.812;4.622;2023-04-08T12:50:35;14.57;;;12.70;;
48241;SDS011;34041;51.812;4.622;2023-04-08T12:53:35;13.75;;;12.38;;
48241;SDS011;34041;51.812;4.622;2023-04-08T12:56:36;13.20;;;11.82;;
48241;SDS011;34041;51.812;4.622;2023-04-08T12:59:38;12.93;;;11.73;;
48241;SDS011;34041;51.812;4.622;2023-04-08T13:02:39;14.15;;;12.75;;
48241;SDS011;34041;51.812;4.622;2023-04-08T13:05:40;15.90;;;13.02;;
48241;SDS011;34041;51.812;4.622;2023-04-08T13:08:41;12.45;;;11.15;;
48241;SDS011;34041;51.812;4.622;2023-04-08T13:11:41;12.20;;;11.00;;
48241;SDS011;34041;51.812;4.622;2023-04-08T13:14:42;12.77;;;11.50;;
48241;SDS011;34041;51.812;4.622;2023-04-08T13:17:42;13.17;;;11.83;;
48241;SDS011;34041;51.812;4.622;2023-04-08T13:20:42;12.50;;;11.27;;
48241;SDS011;34041;51.812;4.622;2023-04-08T13:23:42;12.40;;;11.10;;
48241;SDS011;34041;51.812;4.622;2023-04-08T13:26:43;12.82;;;11.52;;
48241;SDS011;34041;51.812;4.622;2023-04-08T13:29:43;12.57;;;10.48;;
48241;SDS011;34041;51.812;4.622;2023-04-08T13:32:43;12.02;;;10.82;;
48241;SDS011;34041;51.812;4.622;2023-04-08T13:35:43;12.63;;;10.90;;
48241;SDS011;34041;51.812;4.622;2023-04-08T13:38:44;11.40;;;10.20;;
48241;SDS011;34041;51.812;4.622;2023-04-08T13:41:45;12.18;;;10.10;;
48241;SDS011;34041;51.812;4.622;2023-04-08T13:44:45;12.75;;;11.05;;
48241;SDS011;34041;51.812;4.622;2023-04-08T13:47:45;12.83;;;11.00;;
48241;SDS011;34041;51.812;4.622;2023-04-08T13:50:45;12.30;;;9.97;;
48241;SDS011;34041;51.812;4.622;2023-04-08T13:53:46;11.52;;;9.55;;
48241;SDS011;34041;51.812;4.622;2023-04-08T13:56:46;12.80;;;9.33;;
48241;SDS011;34041;51.812;4.622;2023-04-08T13:59:46;12.38;;;10.18;;
48241;SDS011;34041;51.812;4.622;2023-04-08T14:02:46;12.40;;;10.83;;
48241;SDS011;34041;51.812;4.622;2023-04-08T14:05:47;11.67;;;10.37;;
48241;SDS011;34041;51.812;4.622;2023-04-08T14:08:47;11.82;;;10.63;;
48241;SDS011;34041;51.812;4.622;2023-04-08T14:11:47;12.43;;;10.60;;
48241;SDS011;34041;51.812;4.622;2023-04-08T14:14:47;11.57;;;9.57;;
48241;SDS011;34041;51.812;4.622;2023-04-08T14:17:47;10.70;;;9.33;;
48241;SDS011;34041;51.812;4.622;2023-04-08T14:20:48;11.10;;;10.00;;
48241;SDS011;34041;51.812;4.622;2023-04-08T14:23:48;10.73;;;9.10;;
48241;SDS011;34041;51.812;4.622;2023-04-08T14:26:49;11.02;;;9.95;;
48241;SDS011;34041;51.812;4.622;2023-04-08T14:29:49;10.48;;;9.30;;
48241;SDS011;34041;51.812;4.622;2023-04-08T14:32:49;11.38;;;10.18;;
48241;SDS011;34041;51.812;4.622;2023-04-08T14:35:51;15.60;;;9.40;;
48241;SDS011;34041;51.812;4.622;2023-04-08T14:38:51;11.20;;;10.10;;
48241;SDS011;34041;51.812;4.622;2023-04-08T14:41:51;10.38;;;9.23;;
48241;SDS011;34041;51.812;4.622;2023-04-08T14:44:52;10.60;;;9.10;;
48241;SDS011;34041;51.812;4.622;2023-04-08T14:47:52;11.10;;;9.87;;
48241;SDS011;34041;51.812;4.622;2023-04-08T14:50:52;10.73;;;9.70;;
48241;SDS011;34041;51.812;4.622;2023-04-08T14:53:52;9.82;;;8.82;;
48241;SDS011;34041;51.812;4.622;2023-04-08T14:56:53;10.27;;;8.70;;
48241;SDS011;34041;51.812;4.622;2023-04-08T14:59:53;10.48;;;9.02;;
48241;SDS011;34041;51.812;4.622;2023-04-08T15:02:53;9.43;;;8.53;;
48241;SDS011;34041;51.812;4.622;2023-04-08T15:05:53;12.37;;;10.33;;
48241;SDS011;34041;51.812;4.622;2023-04-08T15:08:54;10.35;;;8.57;;
48241;SDS011;34041;51.812;4.622;2023-04-08T15:11:55;9.57;;;8.18;;
48241;SDS011;34041;51.812;4.622;2023-04-08T15:14:57;9.48;;;8.40;;
48241;SDS011;34041;51.812;4.622;2023-04-08T15:17:57;9.38;;;8.40;;
48241;SDS011;34041;51.812;4.622;2023-04-08T15:20:57;11.37;;;8.57;;
48241;SDS011;34041;51.812;4.622;2023-04-08T15:23:57;9.90;;;7.68;;
48241;SDS011;34041;51.812;4.622;2023-04-08T15:26:58;9.73;;;8.37;;
48241;SDS011;34041;51.812;4.622;2023-04-08T15:29:58;10.13;;;9.03;;
48241;SDS011;34041;51.812;4.622;2023-04-08T15:32:58;10.45;;;8.95;;
48241;SDS011;34041;51.812;4.622;2023-04-08T15:35:59;10.60;;;8.43;;
48241;SDS011;34041;51.812;4.622;2023-04-08T15:39:02;9.52;;;8.18;;
48241;SDS011;34041;51.812;4.622;2023-04-08T15:42:03;9.95;;;8.55;;
48241;SDS011;34041;51.812;4.622;2023-04-08T15:45:04;10.38;;;7.75;;
48241;SDS011;34041;51.812;4.622;2023-04-08T15:48:05;12.18;;;8.65;;
48241;SDS011;34041;51.812;4.622;2023-04-08T15:51:05;9.52;;;7.95;;
48241;SDS011;34041;51.812;4.622;2023-04-08T15:54:07;9.65;;;8.07;;
48241;SDS011;34041;51.812;4.622;2023-04-08T15:57:07;11.07;;;8.33;;
48241;SDS011;34041;51.812;4.622;2023-04-08T16:00:08;13.65;;;8.63;;
48241;SDS011;34041;51.812;4.622;2023-04-08T16:03:08;10.45;;;8.73;;
48241;SDS011;34041;51.812;4.622;2023-04-08T16:06:10;11.20;;;8.20;;
48241;SDS011;34041;51.812;4.622;2023-04-08T16:09:10;11.30;;;9.60;;
48241;SDS011;34041;51.812;4.622;2023-04-08T16:12:11;10.57;;;8.27;;
48241;SDS011;34041;51.812;4.622;2023-04-08T16:15:13;10.15;;;7.90;;
48241;SDS011;34041;51.812;4.622;2023-04-08T16:18:13;10.77;;;7.73;;
48241;SDS011;34041;51.812;4.622;2023-04-08T16:21:14;12.23;;;8.68;;
48241;SDS011;34041;51.812;4.622;2023-04-08T16:24:16;9.80;;;7.80;;
48241;SDS011;34041;51.812;4.622;2023-04-08T16:27:19;12.15;;;8.75;;
48241;SDS011;34041;51.812;4.622;2023-04-08T16:30:19;12.57;;;8.70;;
48241;SDS011;34041;51.812;4.622;2023-04-08T16:33:19;10.05;;;8.13;;
48241;SDS011;34041;51.812;4.622;2023-04-08T16:36:22;10.13;;;7.32;;
48241;SDS011;34041;51.812;4.622;2023-04-08T16:39:23;11.13;;;7.88;;
48241;SDS011;34041;51.812;4.622;2023-04-08T16:42:23;10.70;;;7.93;;
48241;SDS011;34041;51.812;4.622;2023-04-08T16:45:23;8.45;;;6.55;;
48241;SDS011;34041;51.812;4.622;2023-04-08T16:48:24;10.37;;;6.97;;
48241;SDS011;34041;51.812;4.622;2023-04-08T16:51:25;10.98;;;8.23;;
48241;SDS011;34041;51.812;4.622;2023-04-08T16:54:25;9.27;;;6.07;;
48241;SDS011;34041;51.812;4.622;2023-04-08T16:57:25;8.07;;;6.03;;
48241;SDS011;34041;51.812;4.622;2023-04-08T17:00:26;9.52;;;6.50;;
48241;SDS011;34041;51.812;4.622;2023-04-08T17:03:26;8.55;;;6.70;;
48241;SDS011;34041;51.812;4.622;2023-04-08T17:06:26;11.23;;;6.37;;
48241;SDS011;34041;51.812;4.622;2023-04-08T17:09:27;9.63;;;7.20;;
48241;SDS011;34041;51.812;4.622;2023-04-08T17:12:27;10.52;;;6.63;;
48241;SDS011;34041;51.812;4.622;2023-04-08T17:15:28;9.27;;;6.82;;
48241;SDS011;34041;51.812;4.622;2023-04-08T17:18:29;7.68;;;5.30;;
48241;SDS011;34041;51.812;4.622;2023-04-08T17:21:29;8.20;;;5.78;;
48241;SDS011;34041;51.812;4.622;2023-04-08T17:24:30;9.43;;;6.35;;
48241;SDS011;34041;51.812;4.622;2023-04-08T17:27:30;22.20;;;14.68;;
48241;SDS011;34041;51.812;4.622;2023-04-08T17:30:30;42.23;;;35.23;;
48241;SDS011;34041;51.812;4.622;2023-04-08T17:33:30;33.15;;;29.50;;
48241;SDS011;34041;51.812;4.622;2023-04-08T17:36:32;31.98;;;26.98;;
48241;SDS011;34041;51.812;4.622;2023-04-08T17:39:33;27.85;;;23.58;;
48241;SDS011;34041;51.812;4.622;2023-04-08T17:42:39;25.83;;;22.45;;
48241;SDS011;34041;51.812;4.622;2023-04-08T17:45:39;25.30;;;22.53;;
48241;SDS011;34041;51.812;4.622;2023-04-08T17:48:39;32.20;;;28.27;;
48241;SDS011;34041;51.812;4.622;2023-04-08T17:51:40;35.78;;;31.83;;
48241;SDS011;34041;51.812;4.622;2023-04-08T17:54:40;37.80;;;34.00;;
48241;SDS011;34041;51.812;4.622;2023-04-08T17:57:41;31.88;;;28.83;;
48241;SDS011;34041;51.812;4.622;2023-04-08T18:00:41;33.47;;;30.08;;